Huvudsida
METAR-TAF:

METAR-TAF

Flygplatser :

Notoddens flygplats. Tuven

Notoddens, Norge

latitud: 59-34N, longitud: 009-13E, höjd: 19 m

Aktuellt väderrapport

Denna rapport gjordes för 1 timme och 5 minuter sedan, klockan 13:50 UTC
Vind 6 kt från väst
Temperatur 19°C
Fuktighet 37%
Tryck 1011 hPa
Sikt 10 km eller mer
Brutna moln på en höjd av 7000 ft

METAR: ENNO 201350Z 27006KT 9999 BKN070 19/04 Q1011

Tid: 16:55 (14:55 UTC)

Väderprognos

Denna rapport gjordes för 3 timmar och 55 minuter sedan, klockan 11:00 UTC
Prognos gäller från 20 kl. 12 UTC till 20 kl. 17 UTC
Vind 10 kt från väst/nordväst
Sikt 10 km eller mer
Få moln på en höjd av 4000 ft, Högtornande cumulus.
Spridda moln på en höjd av 6000 ft
lätta regnskurar

TAF: ENNO 201100Z 2012/2017 30010KT 9999 -SHRA FEW040TCU SCT060

Aktuella väderrapporter och prognoser från 4000 flygplatser (METAR- och TAF-rapporter).

De tillgängliga stationerna syns som gula och röda prickar på kartan.

För musen över prickarna för att se namnen på stationerna.

Klicka sedan för att få väderrapporter och prognoser.

För att ändra kartan: Klicka på de gröna knapparna med ett svart kors på för att zooma in; den gröna knappen med ett streck på för att zooma ut; eller på de gröna pilarna för angränsande kartor.


METAR-TAF: